createdAt,value
2017-06-11T00:00:52.527Z,97.04
2017-06-11T00:10:52.472Z,99.44
2017-06-11T00:20:52.555Z,99.99
2017-06-11T00:30:52.534Z,99.99
2017-06-11T00:40:52.502Z,99.99
2017-06-11T00:50:54.481Z,99.99
2017-06-11T01:00:58.274Z,99.99
2017-06-11T01:10:52.554Z,99.99
2017-06-11T01:20:52.560Z,99.99
2017-06-11T01:30:53.515Z,99.99
2017-06-11T01:40:52.545Z,99.99
2017-06-11T01:50:52.520Z,99.99
2017-06-11T02:00:52.486Z,99.99
2017-06-11T02:10:52.518Z,99.99
2017-06-11T02:20:52.636Z,99.99
2017-06-11T02:30:54.723Z,99.99
2017-06-11T02:40:52.523Z,99.99
2017-06-11T02:50:53.505Z,99.99
2017-06-11T03:00:52.660Z,99.99
2017-06-11T03:10:52.689Z,99.99
2017-06-11T03:20:52.536Z,99.99
2017-06-11T03:30:52.651Z,99.99
2017-06-11T03:40:52.561Z,99.99
2017-06-11T03:50:52.566Z,99.99
2017-06-11T04:00:52.454Z,99.99
2017-06-11T04:10:52.547Z,99.99
2017-06-11T04:20:52.503Z,99.99
2017-06-11T04:30:52.542Z,99.99
2017-06-11T04:40:53.142Z,99.99
2017-06-11T04:50:52.482Z,99.99
2017-06-11T05:00:52.666Z,99.99
2017-06-11T05:10:52.577Z,99.99
2017-06-11T05:20:52.724Z,96.7
2017-06-11T05:30:52.527Z,92.52
2017-06-11T05:40:52.464Z,90.64
2017-06-11T05:50:52.558Z,88.61
2017-06-11T06:00:52.612Z,89.09
2017-06-11T06:10:52.527Z,87.17
2017-06-11T06:20:52.517Z,85.96
2017-06-11T06:30:52.564Z,83.74
2017-06-11T06:40:53.062Z,81.12
2017-06-11T06:50:52.511Z,77.98
2017-06-11T07:00:52.574Z,76.42
2017-06-11T07:10:52.731Z,70.72
2017-06-11T07:20:52.566Z,65.47
2017-06-11T07:30:52.544Z,61.46
2017-06-11T07:40:52.507Z,54.58
2017-06-11T07:50:52.577Z,42.4
2017-06-11T08:00:52.539Z,36.8
2017-06-11T08:10:52.648Z,38.81
2017-06-11T08:20:52.556Z,42.33
2017-06-11T08:30:52.659Z,37.48
2017-06-11T08:40:52.609Z,31.13
2017-06-11T08:50:52.549Z,29.37
2017-06-11T09:00:52.622Z,29.99
2017-06-11T09:10:52.552Z,33.23
2017-06-11T09:20:52.515Z,38.87
2017-06-11T09:30:52.585Z,42.71
2017-06-11T09:40:52.551Z,44.83
2017-06-11T09:50:52.621Z,44.2
2017-06-11T10:00:52.564Z,44.79
2017-06-11T10:10:52.526Z,44.18
2017-06-11T10:20:52.610Z,44.4
2017-06-11T10:30:52.549Z,46.21
2017-06-11T10:40:52.635Z,45.9
2017-06-11T10:50:52.596Z,44.7
2017-06-11T11:00:52.556Z,44.74
2017-06-11T11:10:52.612Z,44.43
2017-06-11T11:20:52.586Z,42.11
2017-06-11T11:30:52.618Z,43.2
2017-06-11T11:40:53.777Z,42.4
2017-06-11T11:50:52.720Z,40.31
2017-06-11T12:00:52.903Z,39.94
2017-06-11T12:10:52.572Z,41.13
2017-06-11T12:20:52.657Z,40
2017-06-11T12:30:53.635Z,40.01
2017-06-11T12:40:52.667Z,39.94
2017-06-11T12:50:52.609Z,39.74
2017-06-11T13:00:52.585Z,39.94
2017-06-11T13:10:52.659Z,40.92
2017-06-11T13:20:52.634Z,40.95
2017-06-11T13:30:52.665Z,44.26
2017-06-11T13:40:52.657Z,45.58
2017-06-11T13:50:52.599Z,45.78
2017-06-11T14:00:52.649Z,46.83
2017-06-11T14:10:52.738Z,47.29
2017-06-11T14:20:52.704Z,48.83
2017-06-11T14:30:52.653Z,49.88
2017-06-11T14:40:52.604Z,51.7
2017-06-11T14:50:53.718Z,55.27
2017-06-11T15:00:52.634Z,57.75
2017-06-11T15:10:52.703Z,58.33
2017-06-11T15:20:52.658Z,59.18
2017-06-11T15:30:52.741Z,59.47
2017-06-11T15:40:52.615Z,57.72
2017-06-11T15:50:52.620Z,57.75
2017-06-11T16:00:53.335Z,57.75
2017-06-11T16:10:52.625Z,59.95
2017-06-11T16:20:52.625Z,60.64
2017-06-11T16:30:52.695Z,61.22
2017-06-11T16:40:52.732Z,62.19
2017-06-11T16:50:52.616Z,63.55
2017-06-11T17:00:52.621Z,64.69
2017-06-11T17:10:52.621Z,69.32
2017-06-11T17:20:52.625Z,77.72
2017-06-11T17:30:52.619Z,85.3
2017-06-11T17:40:52.618Z,88.03
2017-06-11T17:50:52.635Z,94.67
2017-06-11T18:00:52.625Z,94.62
2017-06-11T18:10:52.664Z,99.99
2017-06-11T18:20:52.632Z,99.55
2017-06-11T18:30:52.642Z,99.99
2017-06-11T18:40:52.674Z,99.99
2017-06-11T18:50:52.663Z,99.99
2017-06-11T19:00:52.651Z,99.99
2017-06-11T19:10:52.627Z,99.99
2017-06-11T19:20:52.651Z,99.99
2017-06-11T19:30:52.672Z,99.99
2017-06-11T19:40:52.896Z,99.99
2017-06-11T19:50:52.660Z,99.99
2017-06-11T20:00:52.680Z,99.99
2017-06-11T20:10:52.751Z,99.99
2017-06-11T20:20:52.781Z,99.99
2017-06-11T20:30:52.742Z,99.99
2017-06-11T20:40:52.753Z,99.99
2017-06-11T20:50:52.766Z,99.99
2017-06-11T21:11:10.698Z,99.99
2017-06-11T22:20:52.686Z,99.99
2017-06-11T22:30:52.752Z,99.99
2017-06-11T22:40:52.771Z,99.99
2017-06-11T22:50:52.839Z,99.99
2017-06-11T23:00:52.744Z,99.99
2017-06-11T23:10:52.743Z,99.99
2017-06-11T23:20:52.823Z,95.94
2017-06-11T23:30:52.732Z,95.84
2017-06-11T23:40:52.789Z,93.44
2017-06-11T23:50:52.749Z,88.78
